Terminal Aerodrome Forecast
Issued by NWS Wilmington, OH

Current Version | Previous Version | Text Only | Print | Product List | Glossary Off
Versions: 1 2 3 4 5 6 7 8 9 10 11 12 13 14 15 16 17 18 19

847
FTUS41 KILN 151241 AAA
TAFDAY
TAF AMD
KDAY 151241Z 1513/1612 21018G30KT P6SM VCSH BKN015 OVC025
     FM151400 23020G32KT P6SM VCSH OVC015
      TEMPO 1514/1518 5SM -SHRA
     FM151800 28018G28KT P6SM OVC025
     FM152100 31014G24KT P6SM BKN050
     FM160100 32012KT P6SM BKN050
     FM160700 33005KT P6SM BKN080=

USA.gov is the U.S. government's official web portal to all federal, state and local government web resources and services.